Time;durP1;ratioP1;P1;durP2;ratioP2;P2;SDS_P1;SDS_P2;PMS_P1;PMS_P2;Temp;Humidity;BMP_temperature;BMP_pressure;BME280_temperature;BME280_humidity;BME280_pressure;Samples;Min_cycle;Max_cycle;Signal;HPM_P1;HPM_P2
2023/03/31 01:44:33;;;;;;;16.47;15.17;;;12.30;99.90;;;;;;4918544;23;20597;-73
2023/03/31 01:47:06;;;;;;;17.63;16.23;;;12.30;99.90;;;;;;4896995;29;20521;-73
2023/03/31 01:49:40;;;;;;;14.30;12.83;;;12.30;99.90;;;;;;4898163;29;20540;-73
2023/03/31 01:52:16;;;;;;;14.10;13.00;;;12.30;99.90;;;;;;4897844;29;20470;-73
2023/03/31 01:54:49;;;;;;;14.90;13.33;;;12.30;99.90;;;;;;4897925;29;20466;-73
2023/03/31 01:57:22;;;;;;;12.97;12.00;;;12.30;99.90;;;;;;4898059;29;20875;-73
2023/03/31 01:59:58;;;;;;;12.20;11.60;;;12.40;99.90;;;;;;4897645;29;20919;-73
2023/03/31 02:02:29;;;;;;;12.80;11.67;;;12.40;99.90;;;;;;4897533;29;20498;-72
2023/03/31 02:04:59;;;;;;;12.10;11.50;;;12.50;99.90;;;;;;4897501;29;20451;-73
2023/03/31 02:07:31;;;;;;;12.23;11.43;;;12.60;99.90;;;;;;4897485;29;20825;-73
2023/03/31 02:10:02;;;;;;;12.73;11.90;;;12.60;99.90;;;;;;4897613;29;20455;-74
2023/03/31 02:12:31;;;;;;;13.37;12.30;;;12.60;99.90;;;;;;4897419;29;20474;-73
2023/03/31 02:15:02;;;;;;;12.67;12.00;;;12.70;99.90;;;;;;4897475;29;20451;-73
2023/03/31 02:17:31;;;;;;;13.20;11.90;;;12.70;99.90;;;;;;4897536;29;20463;-74
2023/03/31 02:20:05;;;;;;;11.80;11.30;;;12.80;99.90;;;;;;4897397;29;20462;-73
2023/03/31 02:22:36;;;;;;;12.47;11.40;;;12.90;99.90;;;;;;4897444;29;20487;-73
2023/03/31 02:25:06;;;;;;;13.30;12.30;;;12.90;99.90;;;;;;4897484;29;20960;-73
2023/03/31 02:27:37;;;;;;;13.33;12.53;;;12.90;99.90;;;;;;4897238;29;20559;-73
2023/03/31 02:30:07;;;;;;;12.87;11.93;;;12.90;99.90;;;;;;4896673;29;20463;-73
2023/03/31 02:32:37;;;;;;;12.43;11.63;;;12.80;99.90;;;;;;4896439;29;20455;-73
2023/03/31 02:35:05;;;;;;;14.17;13.07;;;12.60;99.90;;;;;;4896675;29;20459;-73
2023/03/31 02:37:33;;;;;;;13.60;12.90;;;12.60;99.90;;;;;;4896955;29;20471;-74
2023/03/31 02:40:07;;;;;;;13.77;13.00;;;12.40;99.90;;;;;;4896642;29;20463;-75
2023/03/31 02:42:34;;;;;;;11.50;11.00;;;12.40;99.90;;;;;;4881800;29;20495;-75
2023/03/31 02:45:03;;;;;;;12.60;11.50;;;12.40;99.90;;;;;;4877253;29;20487;-74
2023/03/31 02:47:32;;;;;;;11.43;10.73;;;12.50;99.90;;;;;;4877512;29;20456;-74
2023/03/31 02:50:01;;;;;;;11.43;10.90;;;12.60;99.90;;;;;;4877611;29;20460;-73
2023/03/31 02:52:44;;;;;;;12.33;11.43;;;12.60;99.90;;;;;;4877541;29;20511;-73
2023/03/31 02:55:23;;;;;;;12.67;11.67;;;12.60;99.90;;;;;;4877310;29;20460;-73
2023/03/31 02:58:20;;;;;;;14.73;13.90;;;12.60;99.90;;;;;;4877321;29;20809;-72
2023/03/31 03:01:04;;;;;;;13.53;12.60;;;12.60;99.90;;;;;;4877692;29;20468;-73
2023/03/31 03:03:42;;;;;;;14.80;13.80;;;12.60;99.90;;;;;;4877437;29;20488;-72
2023/03/31 03:06:22;;;;;;;15.30;13.93;;;12.60;99.90;;;;;;4877084;29;20463;-72
2023/03/31 03:09:03;;;;;;;14.40;13.20;;;12.50;99.90;;;;;;4877097;29;20532;-72
2023/03/31 03:11:38;;;;;;;14.30;13.37;;;12.50;99.90;;;;;;4876927;29;20465;-73
2023/03/31 03:14:12;;;;;;;13.07;12.47;;;12.50;99.90;;;;;;4876825;29;20463;-73
2023/03/31 03:16:44;;;;;;;14.43;13.30;;;12.40;99.90;;;;;;4876942;29;20468;-74
2023/03/31 03:19:19;;;;;;;14.03;13.10;;;12.40;99.90;;;;;;4877035;29;20456;-74
2023/03/31 03:21:46;;;;;;;14.50;13.80;;;12.30;99.90;;;;;;4877623;29;20455;-73
2023/03/31 03:24:13;;;;;;;15.07;14.10;;;12.30;99.90;;;;;;4877043;29;20507;-73
2023/03/31 03:26:40;;;;;;;16.43;15.13;;;12.30;99.90;;;;;;4876919;29;20460;-74
2023/03/31 03:29:07;;;;;;;16.40;15.30;;;12.20;99.90;;;;;;4876822;29;20483;-73
2023/03/31 03:31:34;;;;;;;14.50;13.50;;;12.10;99.90;;;;;;4876971;29;20464;-73
2023/03/31 03:34:00;;;;;;;13.90;13.20;;;12.10;99.90;;;;;;4877036;29;20752;-73
2023/03/31 03:36:28;;;;;;;14.53;13.70;;;11.90;99.90;;;;;;4876513;29;20460;-71
2023/03/31 03:38:55;;;;;;;14.73;13.83;;;11.90;99.90;;;;;;4876684;29;20491;-73
2023/03/31 03:41:22;;;;;;;14.90;14.00;;;11.90;99.90;;;;;;4876395;29;20487;-72
2023/03/31 03:43:48;;;;;;;15.93;14.87;;;11.90;99.90;;;;;;4876484;29;20506;-71
2023/03/31 03:46:15;;;;;;;15.63;14.80;;;11.90;99.90;;;;;;4876803;29;20468;-72
2023/03/31 03:48:42;;;;;;;16.50;15.40;;;11.90;99.90;;;;;;4876496;29;20460;-71
2023/03/31 03:51:08;;;;;;;14.50;13.80;;;11.90;99.90;;;;;;4876270;29;20853;-72
2023/03/31 03:53:36;;;;;;;14.90;14.10;;;12.00;99.90;;;;;;4876231;29;20463;-72
2023/03/31 03:56:03;;;;;;;16.27;15.03;;;11.90;99.90;;;;;;4876402;29;20464;-72
2023/03/31 03:58:30;;;;;;;17.70;16.10;;;11.90;99.90;;;;;;4876492;29;20970;-72
2023/03/31 04:00:57;;;;;;;15.60;14.53;;;11.90;99.90;;;;;;4876146;29;20457;-71
2023/03/31 04:03:24;;;;;;;14.90;13.90;;;11.90;99.90;;;;;;4876005;29;20748;-73
2023/03/31 04:05:50;;;;;;;15.33;14.40;;;11.80;99.90;;;;;;4875670;29;20464;-72
2023/03/31 04:08:17;;;;;;;17.20;16.03;;;11.80;99.90;;;;;;4875939;29;20468;-71
2023/03/31 04:10:47;;;;;;;15.80;14.90;;;11.70;99.90;;;;;;4876303;29;21014;-72
2023/03/31 04:13:14;;;;;;;16.53;15.57;;;11.60;99.90;;;;;;4875910;29;20463;-72
2023/03/31 04:15:41;;;;;;;16.37;15.20;;;11.50;99.90;;;;;;4875800;29;20468;-73
2023/03/31 04:18:17;;;;;;;15.77;14.90;;;11.40;99.90;;;;;;4876056;29;20460;-73
2023/03/31 04:20:44;;;;;;;15.40;14.50;;;11.40;99.90;;;;;;4876305;29;20824;-74
2023/03/31 04:23:14;;;;;;;15.13;14.33;;;11.30;99.90;;;;;;4875907;29;20809;-74
2023/03/31 04:25:45;;;;;;;16.50;15.60;;;11.30;99.90;;;;;;4875933;29;20460;-73
2023/03/31 04:28:13;;;;;;;16.30;14.80;;;11.30;99.90;;;;;;4875874;29;20581;-73
2023/03/31 04:30:40;;;;;;;16.87;15.60;;;11.40;99.90;;;;;;4875709;29;20563;-73
2023/03/31 04:33:07;;;;;;;16.43;15.33;;;11.50;99.90;;;;;;4875770;29;20456;-73
2023/03/31 04:35:47;;;;;;;17.90;16.80;;;11.50;99.90;;;;;;4875880;29;20467;-73
2023/03/31 04:38:17;;;;;;;19.97;18.43;;;11.50;99.90;;;;;;4875984;29;20459;-73
2023/03/31 04:40:44;;;;;;;18.17;16.60;;;11.60;99.90;;;;;;4875744;29;20476;-72
2023/03/31 04:43:12;;;;;;;16.67;15.60;;;11.60;99.90;;;;;;4875217;29;20496;-74
2023/03/31 04:45:39;;;;;;;17.17;15.97;;;11.60;99.90;;;;;;4875516;29;20468;-74
2023/03/31 04:48:06;;;;;;;14.90;13.90;;;11.60;99.90;;;;;;4875143;29;20461;-74
2023/03/31 04:50:33;;;;;;;17.20;15.80;;;11.60;99.90;;;;;;4875517;29;20456;-73
2023/03/31 04:53:00;;;;;;;16.63;15.80;;;11.60;99.90;;;;;;4874917;29;20460;-73
2023/03/31 04:55:27;;;;;;;16.73;15.53;;;11.70;99.90;;;;;;4874459;29;20456;-73
2023/03/31 04:57:53;;;;;;;18.90;17.70;;;11.70;99.90;;;;;;4875110;29;20452;-74
2023/03/31 05:00:23;;;;;;;17.60;16.10;;;11.70;99.90;;;;;;4875324;29;20456;-73
2023/03/31 05:02:50;;;;;;;16.73;15.73;;;11.70;99.90;;;;;;4875319;29;20463;-73
2023/03/31 05:05:17;;;;;;;16.63;15.13;;;11.70;99.90;;;;;;4875552;29;20985;-73
2023/03/31 05:07:45;;;;;;;15.10;14.10;;;11.70;99.90;;;;;;4875261;29;20463;-74
2023/03/31 05:10:11;;;;;;;17.50;15.97;;;11.70;99.90;;;;;;4875320;29;20463;-73
2023/03/31 05:12:38;;;;;;;15.90;14.73;;;11.70;99.90;;;;;;4875027;29;20958;-71
2023/03/31 05:15:07;;;;;;;17.00;15.57;;;11.70;99.90;;;;;;4875095;29;20448;-74
2023/03/31 05:17:36;;;;;;;22.20;19.90;;;11.70;99.90;;;;;;4875385;29;20463;-73
2023/03/31 05:20:07;;;;;;;23.33;21.27;;;11.60;99.90;;;;;;4874800;29;20608;-72
2023/03/31 05:22:35;;;;;;;25.70;23.33;;;11.50;99.90;;;;;;4875340;29;20456;-72
2023/03/31 05:25:02;;;;;;;30.50;28.60;;;11.40;99.90;;;;;;4875290;29;20492;-73
2023/03/31 05:27:28;;;;;;;32.17;29.63;;;11.40;99.90;;;;;;4875305;29;20463;-70
2023/03/31 05:29:55;;;;;;;30.90;28.67;;;11.40;99.90;;;;;;4874919;29;20723;-71
2023/03/31 05:32:22;;;;;;;36.43;34.13;;;11.30;99.90;;;;;;4875021;29;20463;-70
2023/03/31 05:34:51;;;;;;;35.37;33.10;;;11.20;99.90;;;;;;4874966;29;20456;-71
2023/03/31 05:37:18;;;;;;;37.60;34.77;;;11.20;99.90;;;;;;4875001;29;20460;-70
2023/03/31 05:39:44;;;;;;;41.30;37.97;;;11.10;99.90;;;;;;4874236;29;20460;-72
2023/03/31 05:42:11;;;;;;;36.03;33.70;;;11.00;99.90;;;;;;4875161;29;20479;-70
2023/03/31 05:44:38;;;;;;;36.77;34.33;;;10.80;99.90;;;;;;4874894;29;20507;-69
2023/03/31 05:47:05;;;;;;;41.33;38.53;;;10.70;99.90;;;;;;4877310;29;20460;-70
2023/03/31 05:49:32;;;;;;;45.23;41.97;;;10.60;99.90;;;;;;4876179;29;20476;-69
2023/03/31 05:52:00;;;;;;;47.00;43.53;;;10.60;99.90;;;;;;4875631;29;20456;-69
2023/03/31 05:54:27;;;;;;;41.53;39.00;;;10.50;99.90;;;;;;4875158;29;20459;-70
2023/03/31 05:56:54;;;;;;;38.30;35.17;;;10.50;99.90;;;;;;4875549;29;20714;-71
2023/03/31 05:59:21;;;;;;;35.30;33.10;;;10.50;99.90;;;;;;4875679;29;20959;-72
2023/03/31 06:01:47;;;;;;;38.40;35.40;;;10.50;99.90;;;;;;4875596;29;20491;-72
2023/03/31 06:04:14;;;;;;;36.73;34.40;;;10.50;99.90;;;;;;4874865;29;20570;-72
2023/03/31 06:06:43;;;;;;;35.10;32.47;;;10.50;99.90;;;;;;4874830;29;20512;-73
2023/03/31 06:09:11;;;;;;;39.40;36.60;;;10.50;99.90;;;;;;4874994;29;20468;-72
2023/03/31 06:11:38;;;;;;;40.27;37.57;;;10.40;99.90;;;;;;4874891;29;21197;-72
2023/03/31 06:14:05;;;;;;;36.63;34.10;;;10.40;99.90;;;;;;4874878;29;20459;-73
2023/03/31 06:16:32;;;;;;;34.50;32.40;;;10.50;99.90;;;;;;4875226;29;20559;-73
2023/03/31 06:18:59;;;;;;;40.40;37.53;;;10.50;99.90;;;;;;4875079;29;20460;-74
2023/03/31 06:21:25;;;;;;;42.00;38.40;;;10.50;99.90;;;;;;4874934;29;20456;-72
2023/03/31 06:23:54;;;;;;;37.70;34.60;;;10.50;99.90;;;;;;4874709;29;20617;-72
2023/03/31 06:26:22;;;;;;;39.30;36.37;;;10.50;99.90;;;;;;4874764;29;20488;-73
2023/03/31 06:28:50;;;;;;;38.03;35.03;;;10.50;99.90;;;;;;4874676;29;20457;-72
2023/03/31 06:31:18;;;;;;;37.30;34.70;;;10.50;99.90;;;;;;4875008;29;20464;-72
2023/03/31 06:33:46;;;;;;;41.03;37.60;;;10.50;99.90;;;;;;4878392;29;20452;-73
2023/03/31 06:36:14;;;;;;;40.60;37.47;;;10.50;99.90;;;;;;4878164;29;20809;-71
2023/03/31 06:38:41;;;;;;;38.33;35.40;;;10.50;99.90;;;;;;4877888;29;20460;-72
2023/03/31 06:41:10;;;;;;;36.27;33.57;;;10.50;99.90;;;;;;4877779;29;20472;-71
2023/03/31 06:43:38;;;;;;;38.20;35.27;;;10.50;99.90;;;;;;4877765;29;20487;-72
2023/03/31 06:46:05;;;;;;;36.83;33.93;;;10.40;99.90;;;;;;4878151;29;20460;-71
2023/03/31 06:48:32;;;;;;;37.40;34.33;;;10.40;99.90;;;;;;4878138;29;20460;-71
2023/03/31 06:51:01;;;;;;;34.97;32.40;;;10.50;99.90;;;;;;4878144;29;20456;-71
2023/03/31 06:53:27;;;;;;;36.40;33.40;;;10.40;99.90;;;;;;4877792;29;20841;-72
2023/03/31 06:55:54;;;;;;;35.63;32.60;;;10.40;99.90;;;;;;4896020;29;21023;-73
2023/03/31 06:58:21;;;;;;;38.57;35.83;;;10.30;99.90;;;;;;4896189;29;20459;-72
2023/03/31 07:00:49;;;;;;;37.80;35.10;;;10.30;99.90;;;;;;4896522;29;20576;-73
2023/03/31 07:03:17;;;;;;;34.13;31.60;;;10.30;99.90;;;;;;4896484;29;20466;-73
2023/03/31 07:05:48;;;;;;;34.67;32.07;;;10.30;99.90;;;;;;4896318;29;20526;-73
2023/03/31 07:08:16;;;;;;;33.07;30.17;;;10.30;99.90;;;;;;4896631;29;20455;-73
2023/03/31 07:10:45;;;;;;;35.40;32.87;;;10.30;99.90;;;;;;4896201;29;20455;-71
2023/03/31 07:13:12;;;;;;;34.97;32.03;;;10.40;99.90;;;;;;4895963;29;20459;-73
2023/03/31 07:15:39;;;;;;;31.03;28.50;;;10.40;99.90;;;;;;4896282;29;20459;-72
2023/03/31 07:18:08;;;;;;;33.40;30.90;;;10.40;99.90;;;;;;4896115;29;20451;-72
2023/03/31 07:20:36;;;;;;;31.67;28.93;;;10.50;99.90;;;;;;4896229;29;20467;-72
2023/03/31 07:23:05;;;;;;;31.77;29.83;;;10.50;99.90;;;;;;4899662;29;20463;-80
2023/03/31 07:25:32;;;;;;;31.83;29.80;;;10.50;99.90;;;;;;4904118;29;20495;-82
2023/03/31 07:27:59;;;;;;;33.57;31.67;;;10.60;99.90;;;;;;4897362;29;20463;-81
2023/03/31 07:30:26;;;;;;;34.23;32.30;;;10.70;99.90;;;;;;4896422;29;20564;-78
2023/03/31 07:32:53;;;;;;;31.40;29.77;;;10.80;99.90;;;;;;4896233;29;21004;-78
2023/03/31 07:35:22;;;;;;;31.67;29.87;;;10.90;99.90;;;;;;4895947;29;20544;-77
2023/03/31 07:37:50;;;;;;;31.70;30.07;;;10.90;99.90;;;;;;4896009;29;20462;-78
2023/03/31 07:40:20;;;;;;;32.23;30.53;;;11.00;99.90;;;;;;4896648;29;20525;-77
2023/03/31 07:42:47;;;;;;;31.70;30.20;;;11.10;99.90;;;;;;4895402;29;20559;-76
2023/03/31 07:45:16;;;;;;;28.17;26.87;;;11.20;99.90;;;;;;4895491;29;20590;-75
2023/03/31 07:47:43;;;;;;;26.50;25.10;;;11.40;99.90;;;;;;4895811;29;20459;-76
2023/03/31 07:50:10;;;;;;;22.10;21.00;;;11.90;99.90;;;;;;4896025;29;20459;-79
2023/03/31 07:52:39;;;;;;;24.00;22.60;;;12.00;99.90;;;;;;4895819;29;20463;-78
2023/03/31 07:55:07;;;;;;;20.60;19.40;;;12.00;99.90;;;;;;4895570;29;20462;-77
2023/03/31 07:57:34;;;;;;;17.90;17.10;;;12.10;99.90;;;;;;4895278;29;20462;-74
2023/03/31 08:00:01;;;;;;;12.90;12.33;;;12.20;99.90;;;;;;4895518;29;20466;-76
2023/03/31 08:02:27;;;;;;;12.40;11.90;;;12.80;99.90;;;;;;4895334;29;21008;-76
2023/03/31 08:04:55;;;;;;;11.07;10.47;;;13.10;99.90;;;;;;4895363;29;20498;-76
2023/03/31 08:07:21;;;;;;;10.67;10.17;;;13.10;99.90;;;;;;4895056;29;21009;-76
2023/03/31 08:09:49;;;;;;;11.90;11.50;;;13.30;99.90;;;;;;4895188;29;20855;-76
2023/03/31 08:12:16;;;;;;;12.00;11.37;;;13.30;99.90;;;;;;4877138;29;20475;-77
2023/03/31 08:14:43;;;;;;;11.90;11.50;;;13.50;99.90;;;;;;4875747;29;20447;-75
2023/03/31 08:17:10;;;;;;;10.30;9.90;;;14.10;99.90;;;;;;4875534;29;20460;-76
2023/03/31 08:19:37;;;;;;;10.60;10.10;;;15.20;99.90;;;;;;4875871;29;20448;-76
2023/03/31 08:22:04;;;;;;;10.33;10.00;;;15.60;99.90;;;;;;4885994;29;20459;-76
2023/03/31 08:24:30;;;;;;;10.10;9.80;;;15.70;99.90;;;;;;4895117;29;20494;-76
2023/03/31 08:26:58;;;;;;;10.10;9.70;;;15.90;99.90;;;;;;4894375;29;20455;-77
2023/03/31 08:29:25;;;;;;;10.50;10.00;;;16.70;99.90;;;;;;4876762;29;20452;-76
2023/03/31 08:31:53;;;;;;;11.20;10.80;;;17.30;99.90;;;;;;4876117;29;20934;-76
2023/03/31 08:34:20;;;;;;;11.70;11.20;;;17.80;99.90;;;;;;4876464;29;20455;-76
2023/03/31 08:36:47;;;;;;;10.90;10.30;;;18.20;99.90;;;;;;4876594;29;20464;-76
2023/03/31 08:39:14;;;;;;;11.50;10.90;;;18.40;99.90;;;;;;4886779;29;20515;-76
2023/03/31 08:41:51;;;;;;;12.40;11.90;;;18.30;99.90;;;;;;4894713;29;20471;-74
2023/03/31 08:44:26;;;;;;;11.70;11.17;;;18.60;99.90;;;;;;4893834;29;20509;-74
2023/03/31 08:46:56;;;;;;;12.30;11.70;;;18.30;99.90;;;;;;4876258;29;20482;-74
2023/03/31 08:49:24;;;;;;;12.33;11.83;;;18.40;99.90;;;;;;4876085;29;20650;-76
2023/03/31 08:51:55;;;;;;;11.43;11.03;;;18.90;99.90;;;;;;4875761;29;20468;-76
2023/03/31 08:54:31;;;;;;;12.73;12.03;;;19.70;99.90;;;;;;4875658;29;20464;-75
2023/03/31 08:56:58;;;;;;;12.87;12.27;;;20.20;97.80;;;;;;4879581;29;20554;-76
2023/03/31 08:59:30;;;;;;;13.50;12.80;;;20.50;99.50;;;;;;4893549;29;20880;-75
2023/03/31 09:02:04;;;;;;;12.30;11.90;;;20.50;97.30;;;;;;4880179;29;20464;-76
2023/03/31 09:05:01;;;;;;;12.90;12.23;;;19.90;97.20;;;;;;4875859;29;20487;-75
2023/03/31 09:07:39;;;;;;;12.90;12.40;;;20.20;99.20;;;;;;4862847;29;20468;-76
2023/03/31 09:10:23;;;;;;;12.57;12.10;;;21.20;97.20;;;;;;4876815;29;21052;-76
2023/03/31 09:12:57;;;;;;;12.17;11.57;;;22.20;94.30;;;;;;4869769;29;20496;-79
2023/03/31 09:15:28;;;;;;;12.73;12.23;;;23.00;91.90;;;;;;4873425;29;20434;-78
2023/03/31 09:17:57;;;;;;;13.60;13.00;;;23.30;92.50;;;;;;4877000;29;20441;-80
2023/03/31 09:20:30;;;;;;;12.70;12.20;;;23.20;90.10;;;;;;4865932;29;20457;-78
2023/03/31 09:23:01;;;;;;;12.97;12.37;;;22.90;89.70;;;;;;4859602;29;20467;-78
2023/03/31 09:25:32;;;;;;;12.50;11.90;;;22.70;86.90;;;;;;4857687;29;20920;-75
2023/03/31 09:28:02;;;;;;;11.97;11.43;;;22.60;90.00;;;;;;4855475;29;20467;-74
2023/03/31 09:30:33;;;;;;;12.37;11.83;;;21.90;85.90;;;;;;4857224;29;20465;-75
2023/03/31 09:33:14;;;;;;;11.20;10.53;;;21.50;85.50;;;;;;4855798;29;20453;-75
2023/03/31 09:35:41;;;;;;;12.23;11.80;;;21.50;90.00;;;;;;4857209;29;20990;-75
2023/03/31 09:38:11;;;;;;;12.60;12.07;;;21.70;83.30;;;;;;4856845;29;20468;-74
2023/03/31 09:40:38;;;;;;;12.40;11.80;;;20.60;87.50;;;;;;4856803;29;20632;-74
2023/03/31 09:43:07;;;;;;;12.50;11.97;;;19.60;90.00;;;;;;4856643;29;20493;-75
2023/03/31 09:45:36;;;;;;;12.17;11.47;;;18.60;91.00;;;;;;4856918;29;20492;-74
2023/03/31 09:48:08;;;;;;;11.40;11.00;;;18.30;92.40;;;;;;4857155;29;20465;-75
2023/03/31 09:50:40;;;;;;;12.70;12.10;;;17.90;93.20;;;;;;4857017;29;20461;-74
2023/03/31 09:53:15;;;;;;;13.40;12.67;;;17.30;96.40;;;;;;4857010;29;20461;-74
2023/03/31 09:55:45;;;;;;;12.87;12.17;;;16.30;99.90;;;;;;4856747;29;20883;-76
2023/03/31 09:58:13;;;;;;;12.17;11.50;;;16.00;99.90;;;;;;4856863;29;20464;-74
2023/03/31 10:00:43;;;;;;;11.90;11.40;;;16.80;99.50;;;;;;4856776;29;20465;-75
2023/03/31 10:03:13;;;;;;;12.37;11.97;;;18.50;96.30;;;;;;4856241;29;20457;-74
2023/03/31 10:05:49;;;;;;;12.17;11.67;;;20.20;93.10;;;;;;4856246;29;20691;-76
2023/03/31 10:08:26;;;;;;;12.07;11.47;;;21.00;91.20;;;;;;4859435;29;20465;-74
2023/03/31 10:10:54;;;;;;;12.60;11.97;;;21.70;85.80;;;;;;4860479;29;20494;-74
2023/03/31 10:13:25;;;;;;;12.60;11.90;;;21.70;83.00;;;;;;4859949;29;20461;-75
2023/03/31 10:16:02;;;;;;;12.80;12.13;;;21.50;77.90;;;;;;4860329;29;20464;-75
2023/03/31 10:18:35;;;;;;;15.27;14.47;;;21.90;79.10;;;;;;4860572;29;20460;-75
2023/03/31 10:21:03;;;;;;;13.00;12.40;;;22.10;78.60;;;;;;4860439;29;20555;-76
2023/03/31 10:23:32;;;;;;;12.87;12.13;;;22.10;74.80;;;;;;4860240;29;20463;-74
2023/03/31 10:26:00;;;;;;;12.40;11.73;;;22.20;76.30;;;;;;4860610;29;20533;-75
2023/03/31 10:28:27;;;;;;;12.10;11.60;;;22.70;74.30;;;;;;4860234;29;20460;-75
2023/03/31 10:30:56;;;;;;;13.83;13.17;;;22.30;73.60;;;;;;4860131;29;20468;-76
2023/03/31 10:33:26;;;;;;;12.70;12.20;;;22.70;73.20;;;;;;4861230;29;20999;-76
2023/03/31 10:35:57;;;;;;;12.50;11.90;;;22.50;71.80;;;;;;4867175;29;20716;-76
2023/03/31 10:38:27;;;;;;;11.50;11.00;;;22.60;73.50;;;;;;4863518;29;20465;-75
2023/03/31 10:40:56;;;;;;;11.97;11.37;;;21.50;72.70;;;;;;4859775;29;20839;-75
2023/03/31 10:43:28;;;;;;;11.03;10.37;;;21.60;74.40;;;;;;4859694;29;20488;-76
2023/03/31 10:45:58;;;;;;;12.90;12.30;;;21.60;71.40;;;;;;4860407;29;20489;-75
2023/03/31 10:48:27;;;;;;;12.00;11.30;;;20.70;74.40;;;;;;4859727;29;20465;-73
2023/03/31 10:50:55;;;;;;;12.23;11.60;;;20.40;73.90;;;;;;4859912;29;20839;-74
2023/03/31 10:53:22;;;;;;;13.90;13.20;;;19.80;75.50;;;;;;4859674;29;20485;-73
2023/03/31 10:56:03;;;;;;;14.30;13.50;;;19.70;76.90;;;;;;4859780;29;20464;-76
2023/03/31 10:58:49;;;;;;;12.90;12.30;;;19.70;76.80;;;;;;4859900;29;20468;-73
2023/03/31 11:01:29;;;;;;;12.10;11.10;;;20.20;76.00;;;;;;4859840;29;20459;-74
2023/03/31 11:04:22;;;;;;;13.80;13.00;;;20.70;74.40;;;;;;4859488;29;20465;-75
2023/03/31 11:06:56;;;;;;;13.30;12.70;;;20.90;73.50;;;;;;4859721;29;20499;-74
2023/03/31 11:09:41;;;;;;;12.03;11.30;;;21.00;72.80;;;;;;4859620;29;20687;-73
2023/03/31 11:12:18;;;;;;;12.70;11.97;;;20.50;69.00;;;;;;4859369;29;20735;-73
2023/03/31 11:14:59;;;;;;;12.53;11.80;;;19.60;71.50;;;;;;4859427;29;20848;-73
2023/03/31 11:17:40;;;;;;;13.00;12.33;;;19.10;73.40;;;;;;4858993;29;20465;-74
2023/03/31 11:20:18;;;;;;;12.30;11.70;;;18.80;75.20;;;;;;4858553;29;20457;-74
2023/03/31 11:22:54;;;;;;;11.60;10.93;;;18.30;77.10;;;;;;4859363;29;20977;-74
2023/03/31 11:25:30;;;;;;;18.50;17.60;;;17.10;87.70;;;;;;4858899;29;20506;-74
2023/03/31 11:28:26;;;;;;;26.17;24.90;;;15.90;97.50;;;;;;4858933;29;20563;-74
2023/03/31 11:31:03;;;;;;;37.80;35.50;;;14.00;99.90;;;;;;4853848;29;21315;-75
2023/03/31 11:33:51;;;;;;;37.90;36.00;;;12.40;99.90;;;;;;4862024;29;20445;-78
2023/03/31 11:36:31;;;;;;;38.07;36.37;;;11.50;99.90;;;;;;4859417;29;20539;-78
2023/03/31 11:39:14;;;;;;;34.80;32.97;;;11.10;99.90;;;;;;4864257;29;20453;-82
2023/03/31 11:41:47;;;;;;;36.23;34.60;;;10.90;99.90;;;;;;4865122;29;20826;-83
2023/03/31 11:44:16;;;;;;;34.70;33.20;;;10.80;99.90;;;;;;4865422;29;20476;-81
2023/03/31 11:46:49;;;;;;;33.30;31.80;;;10.70;99.90;;;;;;4860766;29;20504;-79
2023/03/31 11:49:22;;;;;;;32.50;30.83;;;10.80;99.90;;;;;;4859673;29;20464;-78
2023/03/31 11:51:54;;;;;;;30.50;29.27;;;10.70;99.90;;;;;;4859423;29;20454;-78
2023/03/31 11:54:27;;;;;;;28.17;27.07;;;10.60;99.90;;;;;;4859605;29;20889;-76
2023/03/31 11:56:55;;;;;;;25.90;24.90;;;10.60;99.90;;;;;;4858159;29;20456;-76
2023/03/31 11:59:28;;;;;;;24.80;23.90;;;10.70;99.90;;;;;;4858394;29;20583;-76
2023/03/31 12:02:02;;;;;;;21.30;20.50;;;10.80;99.90;;;;;;4857889;29;20870;-76
2023/03/31 12:04:36;;;;;;;18.00;17.40;;;11.00;99.90;;;;;;4871062;29;20460;-75
2023/03/31 12:07:11;;;;;;;17.00;16.40;;;11.50;99.90;;;;;;4875512;29;20495;-76
2023/03/31 12:09:50;;;;;;;13.10;12.50;;;12.40;99.90;;;;;;4876718;29;20455;-77
2023/03/31 12:12:22;;;;;;;11.07;10.67;;;13.90;99.90;;;;;;4877784;29;20464;-78
2023/03/31 12:14:54;;;;;;;10.27;9.97;;;15.40;99.90;;;;;;4877760;29;20805;-79
2023/03/31 12:17:25;;;;;;;11.57;11.27;;;16.80;99.90;;;;;;4877517;29;20515;-80
2023/03/31 12:19:56;;;;;;;11.07;10.77;;;18.30;99.00;;;;;;4877589;29;21049;-78
2023/03/31 12:22:27;;;;;;;11.10;10.50;;;18.50;97.90;;;;;;4877111;29;20831;-78
2023/03/31 12:24:54;;;;;;;11.20;10.80;;;19.00;96.20;;;;;;4877154;29;20444;-77
2023/03/31 12:27:25;;;;;;;11.10;10.50;;;18.20;96.80;;;;;;4876926;29;20498;-76
2023/03/31 12:29:57;;;;;;;11.37;10.77;;;18.00;97.30;;;;;;4876541;29;21327;-76
2023/03/31 12:32:28;;;;;;;10.80;10.50;;;18.50;96.50;;;;;;4876736;29;20456;-75
2023/03/31 12:35:01;;;;;;;11.57;11.17;;;19.00;93.90;;;;;;4876895;29;20966;-75
2023/03/31 12:37:52;;;;;;;12.10;11.70;;;19.60;93.60;;;;;;4876929;29;20458;-75
2023/03/31 12:40:31;;;;;;;11.50;11.10;;;19.50;91.20;;;;;;4879397;29;20459;-74
2023/03/31 12:43:29;;;;;;;10.93;10.53;;;19.70;93.40;;;;;;4877310;29;20486;-72
2023/03/31 12:46:19;;;;;;;11.60;11.17;;;19.80;92.80;;;;;;4877206;29;20515;-72
2023/03/31 12:49:05;;;;;;;11.20;10.80;;;20.80;90.00;;;;;;4875318;29;20464;-75
2023/03/31 12:51:55;;;;;;;10.40;10.10;;;20.00;88.00;;;;;;4876636;29;20877;-72
2023/03/31 12:54:44;;;;;;;12.83;12.33;;;20.30;87.90;;;;;;4876422;29;20815;-72
2023/03/31 12:57:20;;;;;;;10.80;10.40;;;19.60;86.40;;;;;;4876345;29;20456;-73
2023/03/31 13:00:06;;;;;;;10.60;10.30;;;19.30;90.20;;;;;;4876326;29;20460;-72
2023/03/31 13:02:33;;;;;;;10.80;10.40;;;19.80;87.80;;;;;;4876387;29;20530;-73
2023/03/31 13:05:20;;;;;;;11.27;10.70;;;20.40;87.00;;;;;;4876526;29;20468;-73
2023/03/31 13:07:48;;;;;;;11.40;10.80;;;19.50;86.90;;;;;;4876286;29;20460;-72
2023/03/31 13:10:28;;;;;;;11.37;10.60;;;19.10;90.00;;;;;;4876081;29;20444;-72
2023/03/31 13:13:04;;;;;;;10.97;10.50;;;18.80;90.50;;;;;;4876019;29;20635;-72
2023/03/31 13:15:31;;;;;;;10.93;10.43;;;18.80;90.00;;;;;;4876021;29;20447;-73
2023/03/31 13:18:00;;;;;;;11.40;11.00;;;18.40;89.00;;;;;;4876213;29;20461;-73
2023/03/31 13:20:36;;;;;;;11.00;10.40;;;18.30;90.50;;;;;;4875762;29;20453;-74
2023/03/31 13:23:07;;;;;;;11.17;10.67;;;17.90;91.50;;;;;;4876498;29;20487;-73
2023/03/31 13:25:44;;;;;;;11.90;10.90;;;17.60;94.30;;;;;;4875992;29;20548;-73
2023/03/31 13:28:28;;;;;;;13.47;12.43;;;16.50;94.00;;;;;;4875918;29;20549;-76
2023/03/31 13:31:01;;;;;;;10.83;10.43;;;15.40;99.60;;;;;;4872768;29;20463;-74
2023/03/31 13:33:32;;;;;;;12.13;11.30;;;14.70;99.90;;;;;;4875992;29;20547;-76
2023/03/31 13:36:27;;;;;;;11.30;10.70;;;14.30;99.90;;;;;;4875904;29;20456;-76
2023/03/31 13:39:09;;;;;;;11.37;10.67;;;14.00;99.90;;;;;;4873440;29;20468;-75
2023/03/31 13:41:49;;;;;;;10.10;9.77;;;13.90;99.90;;;;;;4874743;29;20485;-75
2023/03/31 13:44:43;;;;;;;9.87;9.40;;;14.20;99.90;;;;;;4875707;29;21002;-74
2023/03/31 13:47:36;;;;;;;10.30;9.90;;;14.30;99.90;;;;;;4875218;29;20492;-74
2023/03/31 13:50:17;;;;;;;11.00;10.40;;;14.10;99.90;;;;;;4875958;29;20550;-74
2023/03/31 13:52:55;;;;;;;11.17;10.80;;;13.60;99.90;;;;;;4880597;29;20452;-75
2023/03/31 13:56:05;;;;;;;13.10;12.70;;;13.20;99.90;;;;;;4875720;29;20954;-74
2023/03/31 13:58:52;;;;;;;10.00;9.70;;;12.70;99.90;;;;;;4875106;29;20584;-74
2023/03/31 14:01:40;;;;;;;11.00;10.60;;;12.30;99.90;;;;;;4889527;29;20563;-74
2023/03/31 14:04:21;;;;;;;11.53;11.23;;;12.20;99.90;;;;;;4894270;29;20919;-74
2023/03/31 14:06:53;;;;;;;12.80;12.40;;;12.20;99.90;;;;;;4894431;29;20490;-75
2023/03/31 14:09:25;;;;;;;14.87;14.47;;;12.00;99.90;;;;;;4894207;29;20462;-73
2023/03/31 14:11:53;;;;;;;16.50;15.80;;;11.90;99.90;;;;;;4883785;29;20528;-76
2023/03/31 14:14:22;;;;;;;16.37;15.87;;;11.70;99.90;;;;;;4872404;29;20454;-76
2023/03/31 14:16:52;;;;;;;15.20;14.70;;;11.70;99.90;;;;;;4874968;29;20478;-76
2023/03/31 14:19:52;;;;;;;16.47;15.97;;;11.70;99.90;;;;;;4874913;29;20453;-79
2023/03/31 14:22:27;;;;;;;13.53;13.13;;;12.20;99.90;;;;;;4870118;29;20456;-76
2023/03/31 14:25:02;;;;;;;12.07;11.60;;;12.50;99.90;;;;;;4874566;29;20448;-76
2023/03/31 14:27:47;;;;;;;9.33;9.03;;;12.70;99.90;;;;;;4874850;29;20574;-75
2023/03/31 14:30:22;;;;;;;10.30;10.00;;;12.90;99.90;;;;;;4873702;29;20455;-74
2023/03/31 14:33:02;;;;;;;10.33;9.93;;;13.10;99.90;;;;;;4873515;29;20823;-75
2023/03/31 14:35:37;;;;;;;9.97;9.67;;;13.10;99.90;;;;;;4873351;29;20483;-75